sensor_id;sensor_type;location;lat;lon;timestamp;P1;durP1;ratioP1;P2;durP2;ratioP2
49948;SDS011;35840;45.982;8.890;2023-02-28T00:00:20;6.65;;;4.07;;
49948;SDS011;35840;45.982;8.890;2023-02-28T00:02:48;4.75;;;4.03;;
49948;SDS011;35840;45.982;8.890;2023-02-28T00:05:16;6.20;;;4.28;;
49948;SDS011;35840;45.982;8.890;2023-02-28T00:07:44;7.25;;;4.97;;
49948;SDS011;35840;45.982;8.890;2023-02-28T00:10:12;6.13;;;4.35;;
49948;SDS011;35840;45.982;8.890;2023-02-28T00:12:41;6.75;;;4.97;;
49948;SDS011;35840;45.982;8.890;2023-02-28T00:15:09;6.53;;;4.15;;
49948;SDS011;35840;45.982;8.890;2023-02-28T00:17:37;5.85;;;4.20;;
49948;SDS011;35840;45.982;8.890;2023-02-28T00:20:04;7.70;;;4.80;;
49948;SDS011;35840;45.982;8.890;2023-02-28T00:22:36;5.70;;;5.07;;
49948;SDS011;35840;45.982;8.890;2023-02-28T00:25:07;7.63;;;4.75;;
49948;SDS011;35840;45.982;8.890;2023-02-28T00:27:36;6.70;;;4.78;;
49948;SDS011;35840;45.982;8.890;2023-02-28T00:30:03;6.65;;;5.15;;
49948;SDS011;35840;45.982;8.890;2023-02-28T00:32:32;6.40;;;4.95;;
49948;SDS011;35840;45.982;8.890;2023-02-28T00:35:00;6.50;;;5.10;;
49948;SDS011;35840;45.982;8.890;2023-02-28T00:37:28;6.50;;;5.05;;
49948;SDS011;35840;45.982;8.890;2023-02-28T00:39:55;6.57;;;5.00;;
49948;SDS011;35840;45.982;8.890;2023-02-28T00:42:22;5.28;;;4.78;;
49948;SDS011;35840;45.982;8.890;2023-02-28T00:44:49;6.75;;;5.10;;
49948;SDS011;35840;45.982;8.890;2023-02-28T00:47:16;7.18;;;5.05;;
49948;SDS011;35840;45.982;8.890;2023-02-28T00:49:43;5.63;;;4.50;;
49948;SDS011;35840;45.982;8.890;2023-02-28T00:52:10;5.65;;;4.88;;
49948;SDS011;35840;45.982;8.890;2023-02-28T00:54:37;7.40;;;5.35;;
49948;SDS011;35840;45.982;8.890;2023-02-28T00:57:04;6.30;;;5.22;;
49948;SDS011;35840;45.982;8.890;2023-02-28T00:59:30;9.68;;;5.57;;
49948;SDS011;35840;45.982;8.890;2023-02-28T01:01:57;7.20;;;5.25;;
49948;SDS011;35840;45.982;8.890;2023-02-28T01:04:24;8.13;;;5.82;;
49948;SDS011;35840;45.982;8.890;2023-02-28T01:06:51;6.63;;;5.53;;
49948;SDS011;35840;45.982;8.890;2023-02-28T01:09:18;7.53;;;5.68;;
49948;SDS011;35840;45.982;8.890;2023-02-28T01:11:44;8.02;;;5.00;;
49948;SDS011;35840;45.982;8.890;2023-02-28T01:14:12;7.22;;;5.47;;
49948;SDS011;35840;45.982;8.890;2023-02-28T01:16:44;6.40;;;5.50;;
49948;SDS011;35840;45.982;8.890;2023-02-28T01:19:11;7.68;;;6.10;;
49948;SDS011;35840;45.982;8.890;2023-02-28T01:21:38;5.90;;;5.07;;
49948;SDS011;35840;45.982;8.890;2023-02-28T01:24:05;7.22;;;5.35;;
49948;SDS011;35840;45.982;8.890;2023-02-28T01:26:34;8.02;;;5.63;;
49948;SDS011;35840;45.982;8.890;2023-02-28T01:29:01;8.93;;;5.15;;
49948;SDS011;35840;45.982;8.890;2023-02-28T01:31:28;6.22;;;5.13;;
49948;SDS011;35840;45.982;8.890;2023-02-28T01:33:55;12.88;;;6.72;;
49948;SDS011;35840;45.982;8.890;2023-02-28T01:36:25;6.57;;;5.60;;
49948;SDS011;35840;45.982;8.890;2023-02-28T01:38:54;7.55;;;6.03;;
49948;SDS011;35840;45.982;8.890;2023-02-28T01:41:29;9.63;;;5.50;;
49948;SDS011;35840;45.982;8.890;2023-02-28T01:44:04;7.50;;;5.78;;
49948;SDS011;35840;45.982;8.890;2023-02-28T01:46:34;8.52;;;6.15;;
49948;SDS011;35840;45.982;8.890;2023-02-28T01:49:06;8.32;;;6.20;;
49948;SDS011;35840;45.982;8.890;2023-02-28T01:54:20;8.15;;;6.18;;
49948;SDS011;35840;45.982;8.890;2023-02-28T01:56:51;6.72;;;5.50;;
49948;SDS011;35840;45.982;8.890;2023-02-28T01:59:29;7.60;;;5.60;;
49948;SDS011;35840;45.982;8.890;2023-02-28T02:01:58;8.07;;;6.10;;
49948;SDS011;35840;45.982;8.890;2023-02-28T02:04:27;8.35;;;6.20;;
49948;SDS011;35840;45.982;8.890;2023-02-28T02:09:29;8.95;;;5.57;;
49948;SDS011;35840;45.982;8.890;2023-02-28T02:11:55;7.10;;;5.80;;
49948;SDS011;35840;45.982;8.890;2023-02-28T02:17:26;6.78;;;5.80;;
49948;SDS011;35840;45.982;8.890;2023-02-28T02:28:39;8.55;;;6.88;;
49948;SDS011;35840;45.982;8.890;2023-02-28T02:31:26;8.90;;;6.05;;
49948;SDS011;35840;45.982;8.890;2023-02-28T02:34:09;10.30;;;6.18;;
49948;SDS011;35840;45.982;8.890;2023-02-28T02:42:24;8.07;;;6.40;;
49948;SDS011;35840;45.982;8.890;2023-02-28T02:45:02;8.07;;;6.13;;
49948;SDS011;35840;45.982;8.890;2023-02-28T02:47:34;6.85;;;5.75;;
49948;SDS011;35840;45.982;8.890;2023-02-28T02:50:04;9.95;;;7.10;;
49948;SDS011;35840;45.982;8.890;2023-02-28T02:52:38;8.93;;;7.18;;
49948;SDS011;35840;45.982;8.890;2023-02-28T02:55:10;10.45;;;6.55;;
49948;SDS011;35840;45.982;8.890;2023-02-28T02:57:46;9.32;;;6.55;;
49948;SDS011;35840;45.982;8.890;2023-02-28T03:00:17;9.75;;;6.75;;
49948;SDS011;35840;45.982;8.890;2023-02-28T03:02:49;10.00;;;6.68;;
49948;SDS011;35840;45.982;8.890;2023-02-28T03:05:20;8.85;;;6.53;;
49948;SDS011;35840;45.982;8.890;2023-02-28T03:07:51;10.60;;;7.00;;
49948;SDS011;35840;45.982;8.890;2023-02-28T03:10:32;9.77;;;6.85;;
49948;SDS011;35840;45.982;8.890;2023-02-28T03:18:22;9.38;;;7.20;;
49948;SDS011;35840;45.982;8.890;2023-02-28T03:23:47;9.48;;;6.15;;
49948;SDS011;35840;45.982;8.890;2023-02-28T03:26:39;6.85;;;5.47;;
49948;SDS011;35840;45.982;8.890;2023-02-28T03:31:58;8.60;;;5.93;;
49948;SDS011;35840;45.982;8.890;2023-02-28T03:34:34;16.27;;;8.30;;
49948;SDS011;35840;45.982;8.890;2023-02-28T03:39:37;8.23;;;5.57;;
49948;SDS011;35840;45.982;8.890;2023-02-28T03:42:11;10.65;;;6.93;;
49948;SDS011;35840;45.982;8.890;2023-02-28T03:44:55;10.52;;;6.65;;
49948;SDS011;35840;45.982;8.890;2023-02-28T03:50:17;10.50;;;7.00;;
49948;SDS011;35840;45.982;8.890;2023-02-28T03:52:47;9.75;;;6.65;;
49948;SDS011;35840;45.982;8.890;2023-02-28T03:55:32;8.77;;;6.88;;
49948;SDS011;35840;45.982;8.890;2023-02-28T03:58:06;9.00;;;7.47;;
49948;SDS011;35840;45.982;8.890;2023-02-28T04:00:45;9.13;;;6.45;;
49948;SDS011;35840;45.982;8.890;2023-02-28T04:03:15;10.93;;;7.72;;
49948;SDS011;35840;45.982;8.890;2023-02-28T04:05:54;8.00;;;6.07;;
49948;SDS011;35840;45.982;8.890;2023-02-28T04:08:23;10.00;;;7.18;;
49948;SDS011;35840;45.982;8.890;2023-02-28T04:11:04;9.77;;;7.30;;
49948;SDS011;35840;45.982;8.890;2023-02-28T04:13:39;9.85;;;7.40;;
49948;SDS011;35840;45.982;8.890;2023-02-28T04:16:08;8.95;;;6.82;;
49948;SDS011;35840;45.982;8.890;2023-02-28T04:18:49;11.05;;;6.88;;
49948;SDS011;35840;45.982;8.890;2023-02-28T04:21:16;10.73;;;7.25;;
49948;SDS011;35840;45.982;8.890;2023-02-28T04:23:46;11.60;;;8.02;;
49948;SDS011;35840;45.982;8.890;2023-02-28T04:26:13;11.57;;;7.13;;
49948;SDS011;35840;45.982;8.890;2023-02-28T04:28:40;8.93;;;6.82;;
49948;SDS011;35840;45.982;8.890;2023-02-28T04:31:06;9.57;;;7.40;;
49948;SDS011;35840;45.982;8.890;2023-02-28T04:33:33;10.05;;;7.57;;
49948;SDS011;35840;45.982;8.890;2023-02-28T04:36:00;11.82;;;7.55;;
49948;SDS011;35840;45.982;8.890;2023-02-28T04:38:33;11.73;;;8.07;;
49948;SDS011;35840;45.982;8.890;2023-02-28T04:41:01;12.27;;;8.20;;
49948;SDS011;35840;45.982;8.890;2023-02-28T04:43:28;11.70;;;8.50;;
49948;SDS011;35840;45.982;8.890;2023-02-28T04:45:56;48.58;;;27.85;;
49948;SDS011;35840;45.982;8.890;2023-02-28T04:48:25;17.73;;;11.25;;
49948;SDS011;35840;45.982;8.890;2023-02-28T04:50:53;12.50;;;9.15;;
49948;SDS011;35840;45.982;8.890;2023-02-28T04:53:21;9.13;;;7.88;;
49948;SDS011;35840;45.982;8.890;2023-02-28T04:55:48;10.43;;;8.32;;
49948;SDS011;35840;45.982;8.890;2023-02-28T04:58:14;11.68;;;7.97;;
49948;SDS011;35840;45.982;8.890;2023-02-28T05:00:41;11.00;;;8.73;;
49948;SDS011;35840;45.982;8.890;2023-02-28T05:03:07;11.48;;;8.82;;
49948;SDS011;35840;45.982;8.890;2023-02-28T05:05:36;9.88;;;7.70;;
49948;SDS011;35840;45.982;8.890;2023-02-28T05:08:02;12.00;;;8.05;;
49948;SDS011;35840;45.982;8.890;2023-02-28T05:10:29;9.60;;;7.10;;
49948;SDS011;35840;45.982;8.890;2023-02-28T05:12:56;12.85;;;8.10;;
49948;SDS011;35840;45.982;8.890;2023-02-28T05:15:23;12.02;;;7.82;;
49948;SDS011;35840;45.982;8.890;2023-02-28T05:17:50;11.48;;;7.20;;
49948;SDS011;35840;45.982;8.890;2023-02-28T05:20:16;10.38;;;7.68;;
49948;SDS011;35840;45.982;8.890;2023-02-28T05:22:43;9.98;;;7.30;;
49948;SDS011;35840;45.982;8.890;2023-02-28T05:25:12;9.05;;;7.03;;
49948;SDS011;35840;45.982;8.890;2023-02-28T05:27:42;13.43;;;7.30;;
49948;SDS011;35840;45.982;8.890;2023-02-28T05:30:09;10.65;;;7.80;;
49948;SDS011;35840;45.982;8.890;2023-02-28T05:32:37;13.00;;;9.35;;
49948;SDS011;35840;45.982;8.890;2023-02-28T05:35:05;14.10;;;8.35;;
49948;SDS011;35840;45.982;8.890;2023-02-28T05:37:32;11.10;;;7.75;;
49948;SDS011;35840;45.982;8.890;2023-02-28T05:39:59;11.38;;;8.02;;
49948;SDS011;35840;45.982;8.890;2023-02-28T05:42:26;10.50;;;7.72;;
49948;SDS011;35840;45.982;8.890;2023-02-28T05:44:52;9.13;;;6.97;;
49948;SDS011;35840;45.982;8.890;2023-02-28T05:47:19;9.50;;;7.47;;
49948;SDS011;35840;45.982;8.890;2023-02-28T05:49:46;11.82;;;7.70;;
49948;SDS011;35840;45.982;8.890;2023-02-28T05:52:13;10.60;;;8.13;;
49948;SDS011;35840;45.982;8.890;2023-02-28T05:54:39;10.50;;;8.02;;
49948;SDS011;35840;45.982;8.890;2023-02-28T05:57:06;10.82;;;8.38;;
49948;SDS011;35840;45.982;8.890;2023-02-28T05:59:44;9.98;;;7.15;;
49948;SDS011;35840;45.982;8.890;2023-02-28T06:02:12;9.30;;;7.40;;
49948;SDS011;35840;45.982;8.890;2023-02-28T06:04:40;10.32;;;7.97;;
49948;SDS011;35840;45.982;8.890;2023-02-28T06:07:08;11.70;;;7.80;;
49948;SDS011;35840;45.982;8.890;2023-02-28T06:09:35;8.98;;;7.18;;
49948;SDS011;35840;45.982;8.890;2023-02-28T06:12:03;13.00;;;8.02;;
49948;SDS011;35840;45.982;8.890;2023-02-28T06:14:32;11.35;;;8.57;;
49948;SDS011;35840;45.982;8.890;2023-02-28T06:17:00;14.95;;;8.70;;
49948;SDS011;35840;45.982;8.890;2023-02-28T06:19:27;11.45;;;9.10;;
49948;SDS011;35840;45.982;8.890;2023-02-28T06:21:55;12.63;;;8.10;;
49948;SDS011;35840;45.982;8.890;2023-02-28T06:24:23;9.38;;;7.53;;
49948;SDS011;35840;45.982;8.890;2023-02-28T06:26:51;12.60;;;8.68;;
49948;SDS011;35840;45.982;8.890;2023-02-28T06:29:17;10.85;;;7.47;;
49948;SDS011;35840;45.982;8.890;2023-02-28T06:31:45;11.20;;;8.65;;
49948;SDS011;35840;45.982;8.890;2023-02-28T06:34:13;10.32;;;7.65;;
49948;SDS011;35840;45.982;8.890;2023-02-28T06:36:40;12.05;;;8.13;;
49948;SDS011;35840;45.982;8.890;2023-02-28T06:39:08;10.68;;;8.38;;
49948;SDS011;35840;45.982;8.890;2023-02-28T06:41:35;11.82;;;8.82;;
49948;SDS011;35840;45.982;8.890;2023-02-28T06:44:20;12.68;;;8.40;;
49948;SDS011;35840;45.982;8.890;2023-02-28T06:46:48;10.18;;;7.53;;
49948;SDS011;35840;45.982;8.890;2023-02-28T06:49:15;12.18;;;8.40;;
49948;SDS011;35840;45.982;8.890;2023-02-28T06:51:43;12.20;;;8.13;;
49948;SDS011;35840;45.982;8.890;2023-02-28T06:54:13;14.20;;;9.10;;
49948;SDS011;35840;45.982;8.890;2023-02-28T06:56:40;16.30;;;9.70;;
49948;SDS011;35840;45.982;8.890;2023-02-28T06:59:07;16.85;;;11.07;;
49948;SDS011;35840;45.982;8.890;2023-02-28T07:01:33;14.43;;;9.60;;
49948;SDS011;35840;45.982;8.890;2023-02-28T07:04:00;14.55;;;10.10;;
49948;SDS011;35840;45.982;8.890;2023-02-28T07:06:27;16.52;;;11.38;;
49948;SDS011;35840;45.982;8.890;2023-02-28T07:08:54;16.70;;;11.32;;
49948;SDS011;35840;45.982;8.890;2023-02-28T07:11:22;17.13;;;10.32;;
49948;SDS011;35840;45.982;8.890;2023-02-28T07:13:55;15.18;;;10.85;;
49948;SDS011;35840;45.982;8.890;2023-02-28T07:16:22;18.58;;;11.38;;
49948;SDS011;35840;45.982;8.890;2023-02-28T07:18:53;17.38;;;11.70;;
49948;SDS011;35840;45.982;8.890;2023-02-28T07:21:21;13.40;;;10.18;;
49948;SDS011;35840;45.982;8.890;2023-02-28T07:23:48;16.08;;;10.70;;
49948;SDS011;35840;45.982;8.890;2023-02-28T07:26:16;16.45;;;11.18;;
49948;SDS011;35840;45.982;8.890;2023-02-28T07:28:46;17.10;;;10.38;;
49948;SDS011;35840;45.982;8.890;2023-02-28T07:31:14;19.77;;;10.68;;
49948;SDS011;35840;45.982;8.890;2023-02-28T07:33:42;17.80;;;11.43;;
49948;SDS011;35840;45.982;8.890;2023-02-28T07:36:10;19.00;;;12.55;;
49948;SDS011;35840;45.982;8.890;2023-02-28T07:38:42;20.50;;;12.77;;
49948;SDS011;35840;45.982;8.890;2023-02-28T07:41:14;22.65;;;12.88;;
49948;SDS011;35840;45.982;8.890;2023-02-28T07:43:41;17.67;;;12.65;;
49948;SDS011;35840;45.982;8.890;2023-02-28T07:46:10;19.33;;;12.35;;
49948;SDS011;35840;45.982;8.890;2023-02-28T07:48:38;20.92;;;12.63;;
49948;SDS011;35840;45.982;8.890;2023-02-28T07:51:05;19.25;;;13.18;;
49948;SDS011;35840;45.982;8.890;2023-02-28T07:53:32;22.83;;;13.45;;
49948;SDS011;35840;45.982;8.890;2023-02-28T07:55:59;19.50;;;13.02;;
49948;SDS011;35840;45.982;8.890;2023-02-28T07:58:28;20.00;;;12.48;;
49948;SDS011;35840;45.982;8.890;2023-02-28T08:00:56;20.08;;;12.68;;
49948;SDS011;35840;45.982;8.890;2023-02-28T08:03:23;23.60;;;13.13;;
49948;SDS011;35840;45.982;8.890;2023-02-28T08:05:50;18.92;;;11.45;;
49948;SDS011;35840;45.982;8.890;2023-02-28T08:08:18;17.67;;;11.90;;
49948;SDS011;35840;45.982;8.890;2023-02-28T08:10:45;20.90;;;13.15;;
49948;SDS011;35840;45.982;8.890;2023-02-28T08:13:12;17.33;;;11.65;;
49948;SDS011;35840;45.982;8.890;2023-02-28T08:15:40;19.88;;;12.65;;
49948;SDS011;35840;45.982;8.890;2023-02-28T08:18:08;18.52;;;12.55;;
49948;SDS011;35840;45.982;8.890;2023-02-28T08:20:35;18.85;;;12.05;;
49948;SDS011;35840;45.982;8.890;2023-02-28T08:23:01;16.60;;;11.30;;
49948;SDS011;35840;45.982;8.890;2023-02-28T08:25:28;19.20;;;11.60;;
49948;SDS011;35840;45.982;8.890;2023-02-28T08:27:55;17.00;;;12.40;;
49948;SDS011;35840;45.982;8.890;2023-02-28T08:30:22;19.60;;;12.32;;
49948;SDS011;35840;45.982;8.890;2023-02-28T08:32:49;18.73;;;12.13;;
49948;SDS011;35840;45.982;8.890;2023-02-28T08:35:15;19.70;;;12.18;;
49948;SDS011;35840;45.982;8.890;2023-02-28T08:37:42;17.73;;;12.23;;
49948;SDS011;35840;45.982;8.890;2023-02-28T08:40:09;16.25;;;11.95;;
49948;SDS011;35840;45.982;8.890;2023-02-28T08:42:36;19.27;;;12.70;;
49948;SDS011;35840;45.982;8.890;2023-02-28T08:45:03;20.25;;;13.13;;
49948;SDS011;35840;45.982;8.890;2023-02-28T08:47:30;18.52;;;12.98;;
49948;SDS011;35840;45.982;8.890;2023-02-28T08:49:57;16.27;;;11.88;;
49948;SDS011;35840;45.982;8.890;2023-02-28T08:52:23;18.20;;;11.52;;
49948;SDS011;35840;45.982;8.890;2023-02-28T08:54:50;18.25;;;11.65;;
49948;SDS011;35840;45.982;8.890;2023-02-28T08:57:17;17.00;;;11.07;;
49948;SDS011;35840;45.982;8.890;2023-02-28T08:59:44;18.10;;;11.95;;
49948;SDS011;35840;45.982;8.890;2023-02-28T09:02:12;18.45;;;11.32;;
49948;SDS011;35840;45.982;8.890;2023-02-28T09:04:40;15.85;;;10.68;;
49948;SDS011;35840;45.982;8.890;2023-02-28T09:07:07;18.88;;;11.70;;
49948;SDS011;35840;45.982;8.890;2023-02-28T09:09:34;17.65;;;11.70;;
49948;SDS011;35840;45.982;8.890;2023-02-28T09:12:01;18.10;;;11.52;;
49948;SDS011;35840;45.982;8.890;2023-02-28T09:14:28;19.20;;;12.27;;
49948;SDS011;35840;45.982;8.890;2023-02-28T09:16:55;16.75;;;11.65;;
49948;SDS011;35840;45.982;8.890;2023-02-28T09:19:21;15.32;;;10.63;;
49948;SDS011;35840;45.982;8.890;2023-02-28T09:21:48;15.80;;;11.45;;
49948;SDS011;35840;45.982;8.890;2023-02-28T09:24:15;17.17;;;10.93;;
49948;SDS011;35840;45.982;8.890;2023-02-28T09:26:42;17.20;;;11.80;;
49948;SDS011;35840;45.982;8.890;2023-02-28T09:29:29;20.23;;;12.27;;
49948;SDS011;35840;45.982;8.890;2023-02-28T09:31:56;15.95;;;10.95;;
49948;SDS011;35840;45.982;8.890;2023-02-28T09:34:26;17.25;;;11.73;;
49948;SDS011;35840;45.982;8.890;2023-02-28T09:36:54;16.75;;;11.48;;
49948;SDS011;35840;45.982;8.890;2023-02-28T09:39:22;18.60;;;12.35;;
49948;SDS011;35840;45.982;8.890;2023-02-28T09:41:52;17.23;;;11.98;;
49948;SDS011;35840;45.982;8.890;2023-02-28T09:46:57;20.80;;;12.90;;
49948;SDS011;35840;45.982;8.890;2023-02-28T09:49:31;19.00;;;10.55;;
49948;SDS011;35840;45.982;8.890;2023-02-28T09:52:04;18.00;;;11.68;;
49948;SDS011;35840;45.982;8.890;2023-02-28T09:54:35;17.90;;;11.45;;
49948;SDS011;35840;45.982;8.890;2023-02-28T09:59:58;16.10;;;10.95;;
49948;SDS011;35840;45.982;8.890;2023-02-28T10:05:39;17.88;;;12.25;;
49948;SDS011;35840;45.982;8.890;2023-02-28T10:08:14;17.15;;;11.10;;
49948;SDS011;35840;45.982;8.890;2023-02-28T10:10:48;17.20;;;10.77;;
49948;SDS011;35840;45.982;8.890;2023-02-28T10:13:22;14.93;;;10.65;;
49948;SDS011;35840;45.982;8.890;2023-02-28T10:15:54;17.08;;;11.52;;
49948;SDS011;35840;45.982;8.890;2023-02-28T10:18:25;18.27;;;11.90;;
49948;SDS011;35840;45.982;8.890;2023-02-28T10:20:57;17.23;;;11.02;;
49948;SDS011;35840;45.982;8.890;2023-02-28T10:26:14;17.65;;;11.13;;
49948;SDS011;35840;45.982;8.890;2023-02-28T10:28:43;19.70;;;11.15;;
49948;SDS011;35840;45.982;8.890;2023-02-28T10:31:17;16.70;;;11.32;;
49948;SDS011;35840;45.982;8.890;2023-02-28T10:33:46;22.38;;;11.57;;
49948;SDS011;35840;45.982;8.890;2023-02-28T10:36:14;16.77;;;11.20;;
49948;SDS011;35840;45.982;8.890;2023-02-28T10:38:43;17.85;;;11.75;;
49948;SDS011;35840;45.982;8.890;2023-02-28T10:41:13;18.02;;;10.90;;
49948;SDS011;35840;45.982;8.890;2023-02-28T10:43:53;16.77;;;12.05;;
49948;SDS011;35840;45.982;8.890;2023-02-28T10:46:39;16.30;;;11.10;;
49948;SDS011;35840;45.982;8.890;2023-02-28T10:49:17;17.02;;;11.00;;
49948;SDS011;35840;45.982;8.890;2023-02-28T10:51:49;18.95;;;10.63;;
49948;SDS011;35840;45.982;8.890;2023-02-28T10:54:20;20.27;;;12.63;;
49948;SDS011;35840;45.982;8.890;2023-02-28T10:57:36;15.70;;;10.85;;
49948;SDS011;35840;45.982;8.890;2023-02-28T10:59:45;17.65;;;11.23;;
49948;SDS011;35840;45.982;8.890;2023-02-28T11:02:29;16.52;;;11.75;;
49948;SDS011;35840;45.982;8.890;2023-02-28T11:05:02;18.40;;;11.27;;
49948;SDS011;35840;45.982;8.890;2023-02-28T11:07:29;15.98;;;10.95;;
49948;SDS011;35840;45.982;8.890;2023-02-28T11:10:18;17.90;;;11.75;;
49948;SDS011;35840;45.982;8.890;2023-02-28T11:12:47;18.55;;;11.90;;
49948;SDS011;35840;45.982;8.890;2023-02-28T11:15:32;18.15;;;12.02;;
49948;SDS011;35840;45.982;8.890;2023-02-28T11:20:39;18.27;;;10.63;;
49948;SDS011;35840;45.982;8.890;2023-02-28T11:23:10;18.77;;;11.35;;
49948;SDS011;35840;45.982;8.890;2023-02-28T11:25:40;16.30;;;11.32;;
49948;SDS011;35840;45.982;8.890;2023-02-28T11:28:26;16.73;;;11.40;;
49948;SDS011;35840;45.982;8.890;2023-02-28T11:31:19;16.58;;;11.00;;
49948;SDS011;35840;45.982;8.890;2023-02-28T11:33:47;18.45;;;11.95;;
49948;SDS011;35840;45.982;8.890;2023-02-28T11:38:54;17.98;;;11.88;;
49948;SDS011;35840;45.982;8.890;2023-02-28T11:52:24;18.00;;;11.40;;
49948;SDS011;35840;45.982;8.890;2023-02-28T11:55:26;16.33;;;10.88;;
49948;SDS011;35840;45.982;8.890;2023-02-28T12:03:49;19.60;;;11.65;;
49948;SDS011;35840;45.982;8.890;2023-02-28T12:22:54;16.67;;;11.20;;
49948;SDS011;35840;45.982;8.890;2023-02-28T12:28:20;14.23;;;9.98;;
49948;SDS011;35840;45.982;8.890;2023-02-28T12:31:11;23.60;;;11.88;;
49948;SDS011;35840;45.982;8.890;2023-02-28T12:34:13;13.75;;;10.23;;
49948;SDS011;35840;45.982;8.890;2023-02-28T12:36:44;15.98;;;10.27;;
49948;SDS011;35840;45.982;8.890;2023-02-28T12:39:18;17.55;;;11.35;;
49948;SDS011;35840;45.982;8.890;2023-02-28T12:47:14;16.52;;;10.35;;
49948;SDS011;35840;45.982;8.890;2023-02-28T12:52:22;14.02;;;10.27;;
49948;SDS011;35840;45.982;8.890;2023-02-28T12:55:06;15.30;;;10.02;;
49948;SDS011;35840;45.982;8.890;2023-02-28T12:57:41;13.48;;;9.48;;
49948;SDS011;35840;45.982;8.890;2023-02-28T13:00:17;13.25;;;9.73;;
49948;SDS011;35840;45.982;8.890;2023-02-28T13:08:50;12.77;;;9.73;;
49948;SDS011;35840;45.982;8.890;2023-02-28T13:11:25;14.85;;;9.75;;
49948;SDS011;35840;45.982;8.890;2023-02-28T13:14:00;16.15;;;10.65;;
49948;SDS011;35840;45.982;8.890;2023-02-28T13:16:48;13.52;;;9.50;;
49948;SDS011;35840;45.982;8.890;2023-02-28T13:19:20;13.05;;;10.32;;
49948;SDS011;35840;45.982;8.890;2023-02-28T13:21:50;14.68;;;10.02;;
49948;SDS011;35840;45.982;8.890;2023-02-28T13:24:37;15.18;;;11.13;;
49948;SDS011;35840;45.982;8.890;2023-02-28T13:34:38;14.40;;;9.68;;
49948;SDS011;35840;45.982;8.890;2023-02-28T13:37:41;16.40;;;10.27;;
49948;SDS011;35840;45.982;8.890;2023-02-28T13:42:46;13.45;;;9.40;;
49948;SDS011;35840;45.982;8.890;2023-02-28T13:45:20;18.20;;;10.45;;
49948;SDS011;35840;45.982;8.890;2023-02-28T13:47:53;13.68;;;9.68;;
49948;SDS011;35840;45.982;8.890;2023-02-28T13:50:36;14.10;;;9.73;;
49948;SDS011;35840;45.982;8.890;2023-02-28T14:06:37;13.60;;;9.60;;
49948;SDS011;35840;45.982;8.890;2023-02-28T14:09:15;13.13;;;9.80;;
49948;SDS011;35840;45.982;8.890;2023-02-28T14:11:49;12.80;;;9.43;;
49948;SDS011;35840;45.982;8.890;2023-02-28T14:17:05;14.50;;;10.15;;
49948;SDS011;35840;45.982;8.890;2023-02-28T14:19:36;13.27;;;9.68;;
49948;SDS011;35840;45.982;8.890;2023-02-28T14:22:09;17.98;;;12.68;;
49948;SDS011;35840;45.982;8.890;2023-02-28T14:27:20;15.43;;;9.65;;
49948;SDS011;35840;45.982;8.890;2023-02-28T14:30:02;14.18;;;8.90;;
49948;SDS011;35840;45.982;8.890;2023-02-28T14:32:45;18.38;;;9.88;;
49948;SDS011;35840;45.982;8.890;2023-02-28T14:38:20;13.43;;;9.50;;
49948;SDS011;35840;45.982;8.890;2023-02-28T14:40:56;12.90;;;9.55;;
49948;SDS011;35840;45.982;8.890;2023-02-28T14:43:27;14.30;;;10.07;;
49948;SDS011;35840;45.982;8.890;2023-02-28T14:46:01;12.93;;;9.27;;
49948;SDS011;35840;45.982;8.890;2023-02-28T14:48:32;14.05;;;9.52;;
49948;SDS011;35840;45.982;8.890;2023-02-28T14:51:00;13.07;;;9.77;;
49948;SDS011;35840;45.982;8.890;2023-02-28T14:53:28;11.98;;;8.38;;
49948;SDS011;35840;45.982;8.890;2023-02-28T14:55:56;13.15;;;9.38;;
49948;SDS011;35840;45.982;8.890;2023-02-28T15:00:58;11.65;;;9.10;;
49948;SDS011;35840;45.982;8.890;2023-02-28T15:03:31;14.32;;;9.15;;
49948;SDS011;35840;45.982;8.890;2023-02-28T15:06:06;13.70;;;8.95;;
49948;SDS011;35840;45.982;8.890;2023-02-28T15:08:40;12.60;;;8.95;;
49948;SDS011;35840;45.982;8.890;2023-02-28T15:11:08;11.73;;;8.15;;
49948;SDS011;35840;45.982;8.890;2023-02-28T15:13:43;11.40;;;8.93;;
49948;SDS011;35840;45.982;8.890;2023-02-28T15:16:16;14.15;;;9.07;;
49948;SDS011;35840;45.982;8.890;2023-02-28T15:19:23;13.43;;;9.18;;
49948;SDS011;35840;45.982;8.890;2023-02-28T15:21:56;12.57;;;8.77;;
49948;SDS011;35840;45.982;8.890;2023-02-28T15:24:38;14.55;;;8.82;;
49948;SDS011;35840;45.982;8.890;2023-02-28T15:27:12;12.38;;;8.82;;
49948;SDS011;35840;45.982;8.890;2023-02-28T15:29:46;12.13;;;8.95;;
49948;SDS011;35840;45.982;8.890;2023-02-28T15:32:23;13.13;;;9.57;;
49948;SDS011;35840;45.982;8.890;2023-02-28T15:34:55;12.77;;;9.00;;
49948;SDS011;35840;45.982;8.890;2023-02-28T15:39:53;12.02;;;9.18;;
49948;SDS011;35840;45.982;8.890;2023-02-28T15:42:22;12.85;;;8.98;;
49948;SDS011;35840;45.982;8.890;2023-02-28T15:44:53;11.68;;;8.68;;
49948;SDS011;35840;45.982;8.890;2023-02-28T15:47:21;13.25;;;9.60;;
49948;SDS011;35840;45.982;8.890;2023-02-28T15:49:58;15.32;;;9.75;;
49948;SDS011;35840;45.982;8.890;2023-02-28T15:55:19;15.77;;;10.65;;
49948;SDS011;35840;45.982;8.890;2023-02-28T15:57:54;13.57;;;9.52;;
49948;SDS011;35840;45.982;8.890;2023-02-28T16:00:25;14.75;;;9.63;;
49948;SDS011;35840;45.982;8.890;2023-02-28T16:02:53;11.93;;;9.05;;
49948;SDS011;35840;45.982;8.890;2023-02-28T16:05:22;14.98;;;10.07;;
49948;SDS011;35840;45.982;8.890;2023-02-28T16:07:58;12.52;;;9.15;;
49948;SDS011;35840;45.982;8.890;2023-02-28T16:10:28;11.65;;;8.50;;
49948;SDS011;35840;45.982;8.890;2023-02-28T16:12:56;16.45;;;9.85;;
49948;SDS011;35840;45.982;8.890;2023-02-28T16:15:26;13.13;;;9.60;;
49948;SDS011;35840;45.982;8.890;2023-02-28T16:17:55;14.70;;;9.27;;
49948;SDS011;35840;45.982;8.890;2023-02-28T16:20:24;12.40;;;9.25;;
49948;SDS011;35840;45.982;8.890;2023-02-28T16:22:52;16.77;;;9.93;;
49948;SDS011;35840;45.982;8.890;2023-02-28T16:25:21;14.05;;;10.00;;
49948;SDS011;35840;45.982;8.890;2023-02-28T16:27:53;13.52;;;9.23;;
49948;SDS011;35840;45.982;8.890;2023-02-28T16:30:22;10.77;;;8.80;;
49948;SDS011;35840;45.982;8.890;2023-02-28T16:32:51;13.00;;;8.93;;
49948;SDS011;35840;45.982;8.890;2023-02-28T16:35:20;14.32;;;8.75;;
49948;SDS011;35840;45.982;8.890;2023-02-28T16:37:47;13.00;;;9.40;;
49948;SDS011;35840;45.982;8.890;2023-02-28T16:40:18;12.20;;;8.48;;
49948;SDS011;35840;45.982;8.890;2023-02-28T16:42:48;14.07;;;10.02;;
49948;SDS011;35840;45.982;8.890;2023-02-28T16:45:18;13.50;;;9.48;;
49948;SDS011;35840;45.982;8.890;2023-02-28T16:47:50;12.82;;;9.27;;
49948;SDS011;35840;45.982;8.890;2023-02-28T16:50:21;13.05;;;9.50;;
49948;SDS011;35840;45.982;8.890;2023-02-28T16:52:53;13.57;;;9.18;;
49948;SDS011;35840;45.982;8.890;2023-02-28T16:55:21;13.38;;;8.90;;
49948;SDS011;35840;45.982;8.890;2023-02-28T16:57:50;13.13;;;8.40;;
49948;SDS011;35840;45.982;8.890;2023-02-28T17:00:19;13.80;;;8.65;;
49948;SDS011;35840;45.982;8.890;2023-02-28T17:02:46;13.90;;;8.55;;
49948;SDS011;35840;45.982;8.890;2023-02-28T17:05:15;14.98;;;8.15;;
49948;SDS011;35840;45.982;8.890;2023-02-28T17:07:44;14.82;;;8.50;;
49948;SDS011;35840;45.982;8.890;2023-02-28T17:10:13;16.15;;;9.77;;
49948;SDS011;35840;45.982;8.890;2023-02-28T17:12:45;12.68;;;9.40;;
49948;SDS011;35840;45.982;8.890;2023-02-28T17:15:13;12.77;;;8.35;;
49948;SDS011;35840;45.982;8.890;2023-02-28T17:17:41;14.02;;;8.40;;
49948;SDS011;35840;45.982;8.890;2023-02-28T17:20:11;10.65;;;8.60;;